Time;durP1;ratioP1;P1;durP2;ratioP2;P2;SDS_P1;SDS_P2;PMS_P1;PMS_P2;Temp;Humidity;BMP_temperature;BMP_pressure;BME280_temperature;BME280_humidity;BME280_pressure;Samples;Min_cycle;Max_cycle;Signal;HPM_P1;HPM_P2
2023/07/15 00:00:44;;;;;;;3.70;1.45;;;22.00;99.90;;;;;;5052549;28;20048;-40
2023/07/15 00:03:10;;;;;;;2.70;1.50;;;22.10;99.90;;;;;;5052637;28;20025;-40
2023/07/15 00:05:37;;;;;;;2.50;1.50;;;22.00;99.90;;;;;;5052360;28;20032;-37
2023/07/15 00:08:03;;;;;;;2.22;1.60;;;22.10;99.90;;;;;;5052327;28;20033;-39
2023/07/15 00:10:29;;;;;;;3.33;1.65;;;22.00;99.90;;;;;;5052194;28;20369;-40
2023/07/15 00:12:57;;;;;;;3.95;1.52;;;22.00;99.90;;;;;;5034245;28;20434;-39
2023/07/15 00:15:25;;;;;;;2.63;1.67;;;22.00;99.90;;;;;;5052327;28;20037;-39
2023/07/15 00:17:51;;;;;;;4.45;1.60;;;22.00;99.90;;;;;;5051884;28;20033;-40
2023/07/15 00:20:19;;;;;;;1.80;1.42;;;22.00;99.90;;;;;;5052211;28;20048;-40
2023/07/15 00:22:45;;;;;;;2.25;1.52;;;22.00;99.90;;;;;;5052042;28;20021;-40
2023/07/15 00:25:17;;;;;;;3.53;1.40;;;22.10;99.90;;;;;;5051856;28;20040;-40
2023/07/15 00:27:44;;;;;;;2.60;1.50;;;22.00;99.90;;;;;;5051961;28;20032;-40
2023/07/15 00:30:15;;;;;;;2.58;1.50;;;22.00;99.90;;;;;;5051796;28;20017;-39
2023/07/15 00:32:41;;;;;;;2.78;1.55;;;22.10;99.90;;;;;;5051944;28;20396;-38
2023/07/15 00:35:28;;;;;;;1.92;1.30;;;22.00;99.90;;;;;;5051820;28;20518;-38
2023/07/15 00:37:53;;;;;;;4.03;1.73;;;22.00;99.90;;;;;;5051781;28;20033;-40
2023/07/15 00:40:19;;;;;;;1.70;1.40;;;22.00;99.90;;;;;;5051680;28;20036;-40
2023/07/15 00:43:09;;;;;;;1.73;1.27;;;22.00;99.90;;;;;;5050866;28;20029;-40
2023/07/15 00:45:34;;;;;;;4.60;1.50;;;22.00;99.90;;;;;;5051666;28;20032;-42
2023/07/15 00:48:11;;;;;;;2.58;1.88;;;22.00;99.90;;;;;;5051492;28;20025;-42
2023/07/15 00:50:42;;;;;;;6.43;1.50;;;22.00;99.90;;;;;;5051413;28;20100;-42
2023/07/15 00:53:09;;;;;;;2.13;1.50;;;22.00;99.90;;;;;;5051582;28;20021;-41
2023/07/15 00:55:36;;;;;;;1.92;1.35;;;22.00;99.90;;;;;;5051576;28;20087;-39
2023/07/15 00:58:03;;;;;;;2.22;1.55;;;22.00;99.90;;;;;;5051712;28;20025;-40
2023/07/15 01:00:30;;;;;;;2.58;1.52;;;22.00;99.90;;;;;;5051180;28;20028;-40
2023/07/15 01:02:56;;;;;;;2.47;1.60;;;22.00;99.90;;;;;;5051337;28;20025;-40
2023/07/15 01:05:21;;;;;;;2.70;1.40;;;22.00;99.90;;;;;;5051343;28;20361;-39
2023/07/15 01:07:47;;;;;;;2.60;1.63;;;22.00;99.90;;;;;;5051280;28;20484;-38
2023/07/15 01:10:13;;;;;;;3.20;1.45;;;22.00;99.90;;;;;;5051126;28;20029;-37
2023/07/15 01:12:38;;;;;;;3.60;1.80;;;22.00;99.90;;;;;;5051299;28;20021;-39
2023/07/15 01:15:05;;;;;;;2.38;1.60;;;22.00;99.90;;;;;;5051220;28;20054;-42
2023/07/15 01:17:32;;;;;;;1.80;1.40;;;22.00;99.90;;;;;;5051027;28;20186;-42
2023/07/15 01:19:57;;;;;;;2.45;1.67;;;22.00;99.90;;;;;;5051521;28;20532;-42
2023/07/15 01:22:25;;;;;;;4.75;1.63;;;22.00;99.90;;;;;;5051198;28;20037;-42
2023/07/15 01:24:51;;;;;;;3.80;1.60;;;22.00;99.90;;;;;;5051319;28;20032;-41
2023/07/15 01:27:18;;;;;;;4.18;1.58;;;22.00;99.90;;;;;;5051059;28;20025;-39
2023/07/15 01:29:44;;;;;;;2.08;1.55;;;21.90;99.90;;;;;;5050708;28;20044;-40
2023/07/15 01:32:09;;;;;;;2.95;1.70;;;22.00;99.90;;;;;;5051377;28;20059;-38
2023/07/15 01:34:36;;;;;;;4.40;1.52;;;22.00;99.90;;;;;;5051036;28;20033;-40
2023/07/15 01:37:03;;;;;;;1.63;1.17;;;22.00;99.90;;;;;;5050902;28;20028;-40
2023/07/15 01:39:28;;;;;;;1.80;1.30;;;22.00;99.90;;;;;;5050876;28;20024;-39
2023/07/15 01:41:55;;;;;;;2.30;1.50;;;22.00;99.90;;;;;;5051043;28;20385;-40
2023/07/15 01:44:22;;;;;;;2.70;1.60;;;22.00;99.90;;;;;;5050803;28;20028;-39
2023/07/15 01:46:48;;;;;;;1.92;1.33;;;22.00;99.90;;;;;;5050935;28;20025;-39
2023/07/15 01:49:13;;;;;;;4.57;1.50;;;22.00;99.90;;;;;;5050590;28;20453;-40
2023/07/15 01:51:39;;;;;;;2.17;1.50;;;21.90;99.90;;;;;;5050980;28;20028;-41
2023/07/15 01:54:05;;;;;;;2.13;1.52;;;21.90;99.90;;;;;;5053030;28;20024;-38
2023/07/15 01:56:30;;;;;;;2.22;1.50;;;22.00;99.90;;;;;;5054811;28;20059;-40
2023/07/15 01:58:56;;;;;;;2.40;1.65;;;22.00;99.90;;;;;;5054668;28;20058;-41
2023/07/15 02:01:22;;;;;;;3.80;1.70;;;21.90;99.90;;;;;;5055212;28;20112;-42
2023/07/15 02:03:48;;;;;;;2.13;1.40;;;21.90;99.90;;;;;;5054778;28;20040;-40
2023/07/15 02:06:14;;;;;;;2.30;1.67;;;21.90;99.90;;;;;;5054783;28;20021;-41
2023/07/15 02:08:40;;;;;;;2.10;1.45;;;21.90;99.90;;;;;;5054487;28;20059;-42
2023/07/15 02:11:06;;;;;;;3.75;1.80;;;22.00;99.90;;;;;;5036453;28;20032;-39
2023/07/15 02:13:31;;;;;;;2.38;1.38;;;21.90;99.90;;;;;;5054388;28;20115;-40
2023/07/15 02:15:57;;;;;;;1.88;1.65;;;21.90;99.90;;;;;;5054587;28;20095;-39
2023/07/15 02:18:24;;;;;;;2.40;1.65;;;21.90;99.90;;;;;;5054195;28;20400;-40
2023/07/15 02:20:49;;;;;;;1.55;1.30;;;21.90;99.90;;;;;;5054193;28;20021;-39
2023/07/15 02:23:16;;;;;;;2.38;1.20;;;22.00;99.90;;;;;;5054326;28;20036;-40
2023/07/15 02:25:42;;;;;;;2.47;1.80;;;21.90;99.90;;;;;;5054460;28;20052;-39
2023/07/15 02:28:08;;;;;;;1.95;1.70;;;21.90;99.90;;;;;;5054100;28;20492;-40
2023/07/15 02:30:34;;;;;;;5.45;1.70;;;21.90;99.90;;;;;;5054013;28;20021;-40
2023/07/15 02:33:01;;;;;;;2.28;1.33;;;22.00;99.90;;;;;;5054297;28;20021;-40
2023/07/15 02:35:27;;;;;;;1.98;1.60;;;21.90;99.90;;;;;;5054162;28;20027;-40
2023/07/15 02:37:55;;;;;;;1.65;1.40;;;21.90;99.90;;;;;;5054023;28;20107;-41
2023/07/15 02:40:20;;;;;;;3.42;1.10;;;21.90;99.90;;;;;;5053798;28;20044;-37
2023/07/15 02:42:46;;;;;;;2.50;1.52;;;21.90;99.90;;;;;;5036091;28;20082;-40
2023/07/15 02:45:15;;;;;;;4.35;1.48;;;21.90;99.90;;;;;;5053816;28;20021;-40
2023/07/15 02:47:40;;;;;;;1.38;1.10;;;21.90;99.90;;;;;;5053888;28;20488;-40
2023/07/15 02:50:08;;;;;;;1.55;1.45;;;21.90;99.90;;;;;;5053934;28;20025;-39
2023/07/15 02:52:36;;;;;;;3.10;1.40;;;21.90;99.90;;;;;;5053921;28;20032;-43
2023/07/15 02:55:03;;;;;;;2.00;1.30;;;22.00;99.90;;;;;;5053911;28;20021;-40
2023/07/15 02:57:29;;;;;;;2.03;1.50;;;21.90;99.90;;;;;;5053853;28;20063;-38
2023/07/15 02:59:55;;;;;;;3.70;1.40;;;21.90;99.90;;;;;;5053478;28;20061;-38
2023/07/15 03:02:22;;;;;;;1.88;1.42;;;21.90;99.90;;;;;;5053618;28;20071;-40
2023/07/15 03:04:49;;;;;;;1.70;1.40;;;22.00;99.90;;;;;;5052666;28;20087;-40
2023/07/15 03:07:15;;;;;;;1.52;1.30;;;21.90;99.90;;;;;;5053643;28;20056;-37
2023/07/15 03:09:41;;;;;;;2.63;1.42;;;21.90;99.90;;;;;;5053398;28;20017;-39
2023/07/15 03:12:09;;;;;;;3.35;1.50;;;21.90;99.90;;;;;;5053953;28;20029;-40
2023/07/15 03:14:35;;;;;;;1.95;1.50;;;21.90;99.90;;;;;;5053671;28;20040;-40
2023/07/15 03:17:02;;;;;;;2.28;1.65;;;21.90;99.90;;;;;;5053292;28;20104;-40
2023/07/15 03:19:27;;;;;;;1.63;1.40;;;21.90;99.90;;;;;;5053570;28;20024;-41
2023/07/15 03:21:53;;;;;;;2.15;1.50;;;21.90;99.90;;;;;;5053672;28;20438;-40
2023/07/15 03:24:19;;;;;;;1.75;1.30;;;21.90;99.90;;;;;;5053153;28;20543;-40
2023/07/15 03:26:44;;;;;;;1.92;1.50;;;21.90;99.90;;;;;;5053194;28;20101;-40
2023/07/15 03:29:11;;;;;;;1.65;1.30;;;21.90;99.90;;;;;;5052803;28;20495;-42
2023/07/15 03:31:36;;;;;;;2.15;1.35;;;21.90;99.90;;;;;;5053228;28;20146;-40
2023/07/15 03:34:02;;;;;;;4.47;1.25;;;21.90;99.90;;;;;;5053003;28;20103;-39
2023/07/15 03:36:28;;;;;;;2.22;1.60;;;21.90;99.90;;;;;;5053190;28;20029;-41
2023/07/15 03:38:53;;;;;;;2.35;1.38;;;21.90;99.90;;;;;;5052562;28;20056;-40
2023/07/15 03:41:19;;;;;;;5.70;1.50;;;21.90;99.90;;;;;;5053063;28;20057;-39
2023/07/15 03:43:45;;;;;;;2.53;1.42;;;21.90;99.90;;;;;;5053135;28;20100;-39
2023/07/15 03:46:12;;;;;;;1.90;1.38;;;21.90;99.90;;;;;;5052660;28;20024;-39
2023/07/15 03:48:38;;;;;;;2.97;1.35;;;21.90;99.90;;;;;;5052985;28;20543;-39
2023/07/15 03:51:06;;;;;;;1.52;1.30;;;21.90;99.90;;;;;;5053080;28;20104;-39
2023/07/15 03:53:32;;;;;;;1.73;1.42;;;21.90;99.90;;;;;;5034659;28;20174;-40
2023/07/15 03:55:58;;;;;;;1.75;1.30;;;21.80;99.90;;;;;;5052594;28;20555;-40
2023/07/15 03:58:23;;;;;;;3.10;1.42;;;21.80;99.90;;;;;;5052746;28;20033;-37
2023/07/15 04:00:49;;;;;;;1.80;1.25;;;21.80;99.90;;;;;;5052342;28;20400;-40
2023/07/15 04:03:15;;;;;;;2.70;1.35;;;21.80;99.90;;;;;;5052449;28;20029;-43
2023/07/15 04:05:40;;;;;;;1.40;1.20;;;21.90;99.90;;;;;;5052361;28;20074;-39
2023/07/15 04:08:06;;;;;;;3.13;1.48;;;21.90;99.90;;;;;;5052212;28;20462;-40
2023/07/15 04:10:32;;;;;;;2.20;1.52;;;21.80;99.90;;;;;;5052542;28;20021;-40
2023/07/15 04:12:57;;;;;;;1.80;1.40;;;21.80;99.90;;;;;;5052772;28;20174;-39
2023/07/15 04:15:23;;;;;;;2.72;1.50;;;21.80;99.90;;;;;;5052786;28;20256;-37
2023/07/15 04:17:48;;;;;;;2.13;1.50;;;21.80;99.90;;;;;;5051915;28;20033;-40
2023/07/15 04:20:17;;;;;;;1.55;1.15;;;21.80;99.90;;;;;;5052211;28;20028;-40
2023/07/15 04:22:43;;;;;;;2.15;1.50;;;21.80;99.90;;;;;;5052624;28;20093;-42
2023/07/15 04:25:12;;;;;;;1.80;1.38;;;21.90;99.90;;;;;;5052759;28;20103;-37
2023/07/15 04:27:38;;;;;;;1.40;1.27;;;21.80;99.90;;;;;;5051893;28;20096;-37
2023/07/15 04:30:05;;;;;;;1.60;1.20;;;21.80;99.90;;;;;;5052178;28;20020;-39
2023/07/15 04:32:31;;;;;;;2.78;1.50;;;21.80;99.90;;;;;;5051958;28;20022;-40
2023/07/15 04:34:56;;;;;;;2.10;1.52;;;21.80;99.90;;;;;;5051834;28;20511;-41
2023/07/15 04:37:22;;;;;;;2.45;1.42;;;21.80;99.90;;;;;;5051641;28;20032;-40
2023/07/15 04:39:48;;;;;;;2.33;1.40;;;21.80;99.90;;;;;;5051607;28;20024;-41
2023/07/15 04:42:14;;;;;;;1.88;1.67;;;21.80;99.90;;;;;;5051900;28;20032;-40
2023/07/15 04:44:39;;;;;;;2.22;1.30;;;21.80;99.90;;;;;;5052395;28;20148;-38
2023/07/15 04:47:05;;;;;;;2.00;1.42;;;21.80;99.90;;;;;;5051706;28;20028;-41
2023/07/15 04:49:31;;;;;;;1.50;1.20;;;21.90;99.90;;;;;;5051864;28;20111;-40
2023/07/15 04:51:56;;;;;;;2.55;1.60;;;21.80;99.90;;;;;;5033586;28;20611;-40
2023/07/15 04:54:22;;;;;;;1.70;1.40;;;21.80;99.90;;;;;;5051485;28;20032;-37
2023/07/15 04:56:48;;;;;;;1.75;1.40;;;21.80;99.90;;;;;;5051703;28;20021;-37
2023/07/15 04:59:14;;;;;;;2.97;1.50;;;21.80;99.90;;;;;;5051417;28;20029;-39
2023/07/15 05:01:39;;;;;;;1.80;1.25;;;21.80;99.90;;;;;;5051439;28;20100;-40
2023/07/15 05:04:05;;;;;;;2.13;1.38;;;21.80;99.90;;;;;;5051425;28;20017;-38
2023/07/15 05:06:31;;;;;;;2.80;1.50;;;21.80;99.90;;;;;;5051234;28;20543;-39
2023/07/15 05:08:57;;;;;;;2.50;1.45;;;21.80;99.90;;;;;;5051295;28;20017;-39
2023/07/15 05:11:26;;;;;;;1.98;1.52;;;21.80;99.90;;;;;;5051436;28;20479;-39
2023/07/15 05:13:52;;;;;;;2.53;1.60;;;21.80;99.90;;;;;;5051303;28;20320;-39
2023/07/15 05:16:18;;;;;;;2.35;1.88;;;21.80;99.90;;;;;;5051260;28;20032;-38
2023/07/15 05:18:44;;;;;;;1.90;1.42;;;21.80;99.90;;;;;;5050940;28;20039;-38
2023/07/15 05:21:10;;;;;;;1.83;1.35;;;21.80;99.90;;;;;;5051068;28;20400;-39
2023/07/15 05:23:35;;;;;;;2.08;1.60;;;21.80;99.90;;;;;;5051176;28;20069;-40
2023/07/15 05:26:02;;;;;;;1.88;1.45;;;21.80;99.90;;;;;;5050939;28;20071;-40
2023/07/15 05:28:30;;;;;;;3.05;1.50;;;21.80;99.90;;;;;;5050572;28;20025;-39
2023/07/15 05:31:03;;;;;;;1.75;1.33;;;21.80;99.90;;;;;;5050930;28;20033;-41
2023/07/15 05:33:29;;;;;;;1.40;1.20;;;21.90;99.90;;;;;;5050954;28;20078;-39
2023/07/15 05:35:56;;;;;;;3.17;1.70;;;21.80;99.90;;;;;;5051075;28;20508;-42
2023/07/15 05:38:26;;;;;;;3.10;1.50;;;21.80;99.90;;;;;;5050999;28;20032;-40
2023/07/15 05:40:52;;;;;;;1.48;1.38;;;21.90;99.90;;;;;;5050935;28;20040;-39
2023/07/15 05:43:19;;;;;;;3.42;1.70;;;21.80;99.90;;;;;;5033403;28;20078;-40
2023/07/15 05:45:47;;;;;;;2.28;1.70;;;21.80;99.90;;;;;;5050866;28;20025;-42
2023/07/15 05:48:13;;;;;;;3.25;1.38;;;21.80;99.90;;;;;;5050754;28;20021;-37
2023/07/15 05:50:39;;;;;;;2.60;1.50;;;21.80;99.90;;;;;;5051041;28;20102;-40
2023/07/15 05:53:05;;;;;;;2.03;1.50;;;21.80;99.90;;;;;;5051179;28;20025;-39
2023/07/15 05:55:35;;;;;;;1.98;1.40;;;21.90;99.90;;;;;;5050997;28;20032;-42
2023/07/15 05:58:01;;;;;;;4.82;1.67;;;21.90;99.90;;;;;;5051372;28;20033;-42
2023/07/15 06:00:28;;;;;;;1.77;1.38;;;21.80;99.90;;;;;;5050767;28;20021;-38
2023/07/15 06:02:53;;;;;;;3.33;1.50;;;21.80;99.90;;;;;;5050915;28;20115;-37
2023/07/15 06:05:19;;;;;;;1.98;1.42;;;21.80;99.90;;;;;;5050699;28;20508;-40
2023/07/15 06:07:45;;;;;;;2.17;1.50;;;21.90;99.90;;;;;;5050723;28;20064;-40
2023/07/15 06:10:11;;;;;;;2.53;1.50;;;21.80;99.90;;;;;;5050958;28;20013;-40
2023/07/15 06:12:37;;;;;;;2.03;1.40;;;21.90;99.90;;;;;;5050669;28;20507;-40
2023/07/15 06:15:03;;;;;;;1.90;1.40;;;21.90;99.90;;;;;;5050818;28;20052;-43
2023/07/15 06:17:28;;;;;;;1.83;1.13;;;21.90;99.90;;;;;;5050374;28;20033;-39
2023/07/15 06:19:54;;;;;;;2.05;1.30;;;21.90;99.90;;;;;;5050418;28;20037;-40
2023/07/15 06:22:19;;;;;;;1.60;1.17;;;21.90;99.90;;;;;;5050695;28;20539;-40
2023/07/15 06:24:46;;;;;;;3.83;1.42;;;21.80;99.90;;;;;;5050479;28;20133;-40
2023/07/15 06:27:12;;;;;;;2.35;1.67;;;21.90;99.90;;;;;;5032661;28;20480;-37
2023/07/15 06:29:37;;;;;;;1.60;1.30;;;21.90;99.90;;;;;;5050276;28;20033;-40
2023/07/15 06:32:04;;;;;;;1.95;1.45;;;21.90;99.90;;;;;;5050542;28;20025;-39
2023/07/15 06:34:31;;;;;;;2.15;1.58;;;21.90;99.90;;;;;;5050469;28;20515;-40
2023/07/15 06:36:57;;;;;;;1.63;1.48;;;21.90;99.90;;;;;;5050545;28;20090;-38
2023/07/15 06:39:22;;;;;;;1.73;1.30;;;21.80;99.90;;;;;;5050375;28;20033;-41
2023/07/15 06:41:50;;;;;;;3.47;1.50;;;21.90;99.90;;;;;;5053497;28;20032;-40
2023/07/15 06:44:15;;;;;;;2.50;1.23;;;21.90;99.90;;;;;;5054102;28;20096;-40
2023/07/15 06:46:41;;;;;;;1.98;1.33;;;21.90;99.90;;;;;;5053888;28;20175;-40
2023/07/15 06:49:06;;;;;;;2.20;1.48;;;21.90;99.90;;;;;;5053886;28;20033;-42
2023/07/15 06:51:32;;;;;;;4.57;1.60;;;21.90;99.90;;;;;;5053929;28;20040;-41
2023/07/15 06:53:58;;;;;;;2.20;1.40;;;21.90;99.90;;;;;;5053874;28;20052;-37
2023/07/15 06:56:23;;;;;;;3.72;1.52;;;21.90;99.90;;;;;;5053859;28;20025;-40
2023/07/15 06:58:49;;;;;;;1.98;1.30;;;21.90;99.90;;;;;;5053586;28;20075;-40
2023/07/15 07:01:15;;;;;;;2.60;1.40;;;21.90;99.90;;;;;;5053740;28;20025;-42
2023/07/15 07:03:40;;;;;;;1.92;1.27;;;21.90;99.90;;;;;;5053750;28;20024;-40
2023/07/15 07:06:06;;;;;;;1.70;1.10;;;21.90;99.90;;;;;;5053667;28;20025;-40
2023/07/15 07:08:31;;;;;;;1.50;1.30;;;21.90;99.90;;;;;;5053531;28;20112;-38
2023/07/15 07:10:57;;;;;;;1.52;1.40;;;21.90;99.90;;;;;;5053353;28;20021;-41
2023/07/15 07:13:23;;;;;;;1.23;1.10;;;21.90;99.90;;;;;;5053576;28;20439;-38
2023/07/15 07:15:49;;;;;;;1.67;1.35;;;21.90;99.90;;;;;;5053396;28;20037;-40
2023/07/15 07:18:15;;;;;;;2.05;1.50;;;21.90;99.90;;;;;;5054049;28;20024;-39
2023/07/15 07:20:42;;;;;;;1.77;1.40;;;21.90;99.90;;;;;;5053402;28;20359;-41
2023/07/15 07:23:08;;;;;;;2.90;1.20;;;21.90;99.90;;;;;;5035384;28;20032;-41
2023/07/15 07:25:33;;;;;;;1.55;1.30;;;21.90;99.90;;;;;;5053203;28;20255;-38
2023/07/15 07:27:59;;;;;;;2.45;1.30;;;21.90;99.90;;;;;;5053108;28;20412;-40
2023/07/15 07:30:25;;;;;;;2.15;1.08;;;21.90;99.90;;;;;;5052885;28;20025;-40
2023/07/15 07:32:50;;;;;;;4.07;1.52;;;21.90;99.90;;;;;;5053156;28;20389;-39
2023/07/15 07:35:17;;;;;;;1.98;1.40;;;21.90;99.90;;;;;;5053029;28;20091;-39
2023/07/15 07:37:42;;;;;;;1.35;1.15;;;21.90;99.90;;;;;;5052997;28;20021;-40
2023/07/15 07:40:11;;;;;;;1.95;1.23;;;21.90;99.90;;;;;;5052881;28;20091;-40
2023/07/15 07:42:37;;;;;;;2.05;1.48;;;21.90;99.90;;;;;;5051681;28;20056;-39
2023/07/15 07:45:23;;;;;;;1.38;1.27;;;21.90;99.90;;;;;;5051657;28;20065;-41
2023/07/15 07:47:49;;;;;;;1.45;1.35;;;21.90;99.90;;;;;;5032432;28;20048;-40
2023/07/15 07:50:14;;;;;;;2.10;1.40;;;21.90;99.90;;;;;;5032562;28;20022;-39
2023/07/15 07:52:40;;;;;;;1.85;1.50;;;21.90;99.90;;;;;;5032448;28;20555;-39
2023/07/15 07:55:06;;;;;;;1.60;1.25;;;21.90;99.90;;;;;;5033005;28;20025;-40
2023/07/15 07:57:31;;;;;;;2.03;1.17;;;21.90;99.90;;;;;;5032564;28;20083;-39
2023/07/15 07:59:57;;;;;;;2.28;1.42;;;21.90;99.90;;;;;;5032752;28;20117;-40
2023/07/15 08:02:23;;;;;;;1.58;1.30;;;21.90;99.90;;;;;;5032642;28;20033;-40
2023/07/15 08:04:48;;;;;;;2.28;1.40;;;21.90;99.90;;;;;;5032477;28;20031;-41
2023/07/15 08:07:14;;;;;;;2.00;1.30;;;21.90;99.90;;;;;;5032478;28;20436;-39
2023/07/15 08:09:40;;;;;;;2.45;1.33;;;21.90;99.90;;;;;;5032289;28;20026;-37
2023/07/15 08:12:08;;;;;;;1.75;1.50;;;21.90;99.90;;;;;;5032409;28;20349;-40
2023/07/15 08:14:34;;;;;;;2.85;1.17;;;21.90;99.90;;;;;;5032270;28;20516;-40
2023/07/15 08:16:59;;;;;;;1.60;1.30;;;21.90;99.90;;;;;;5032501;28;20029;-40
2023/07/15 08:19:26;;;;;;;1.30;1.20;;;21.90;99.90;;;;;;5031856;28;20026;-39
2023/07/15 08:21:51;;;;;;;2.03;1.40;;;21.90;99.90;;;;;;5032158;28;20018;-37
2023/07/15 08:24:17;;;;;;;1.67;1.38;;;21.90;99.90;;;;;;5032241;28;20078;-40
2023/07/15 08:26:42;;;;;;;2.53;1.13;;;21.90;99.90;;;;;;5032149;28;20106;-39
2023/07/15 08:29:08;;;;;;;2.38;1.30;;;21.90;99.90;;;;;;5031919;28;20036;-39
2023/07/15 08:31:34;;;;;;;3.15;1.50;;;21.90;99.90;;;;;;5032136;28;20017;-39
2023/07/15 08:33:59;;;;;;;1.38;1.20;;;21.90;99.90;;;;;;5032115;28;20057;-40
2023/07/15 08:36:25;;;;;;;1.83;1.60;;;22.00;99.90;;;;;;5031910;28;20108;-38
2023/07/15 08:38:51;;;;;;;1.23;1.05;;;21.90;99.90;;;;;;5031640;28;20052;-40
2023/07/15 08:41:18;;;;;;;2.10;1.58;;;22.00;99.90;;;;;;5031791;28;20037;-44
2023/07/15 08:43:45;;;;;;;1.35;1.20;;;22.00;99.90;;;;;;5014085;28;20404;-42
2023/07/15 08:46:26;;;;;;;2.53;1.13;;;22.00;99.90;;;;;;5031798;28;20109;-40
2023/07/15 08:48:56;;;;;;;2.38;1.50;;;22.00;99.90;;;;;;5031664;28;20018;-37
2023/07/15 08:51:24;;;;;;;1.45;1.20;;;22.00;99.90;;;;;;5031593;28;20028;-40
2023/07/15 08:53:52;;;;;;;1.52;1.30;;;22.00;99.90;;;;;;5031950;28;20029;-39
2023/07/15 08:56:20;;;;;;;1.63;1.30;;;22.00;99.90;;;;;;5031855;28;20025;-38
2023/07/15 08:58:47;;;;;;;1.40;1.10;;;22.00;99.90;;;;;;5031502;28;20052;-38
2023/07/15 09:01:14;;;;;;;1.77;1.33;;;22.00;99.90;;;;;;5031504;28;20025;-40
2023/07/15 09:03:40;;;;;;;1.70;1.30;;;22.00;99.90;;;;;;5030720;28;20029;-39
2023/07/15 09:06:05;;;;;;;2.03;1.52;;;22.00;99.90;;;;;;5031339;28;20052;-40
2023/07/15 09:08:31;;;;;;;1.73;1.20;;;22.00;99.90;;;;;;5031396;28;20025;-40
2023/07/15 09:10:58;;;;;;;1.30;1.08;;;22.00;99.90;;;;;;5031308;28;20017;-40
2023/07/15 09:13:29;;;;;;;1.65;1.30;;;22.00;99.90;;;;;;5031522;28;20064;-41
2023/07/15 09:15:56;;;;;;;1.50;1.40;;;22.10;99.90;;;;;;5031426;28;20022;-41
2023/07/15 09:18:22;;;;;;;2.47;1.35;;;22.00;99.90;;;;;;5031168;28;20048;-40
2023/07/15 09:20:49;;;;;;;1.73;1.45;;;22.10;99.90;;;;;;5031052;28;20492;-40
2023/07/15 09:23:15;;;;;;;1.83;1.30;;;22.00;99.90;;;;;;5031395;28;20025;-39
2023/07/15 09:25:53;;;;;;;3.10;1.40;;;22.10;99.90;;;;;;5031303;28;20033;-41
2023/07/15 09:28:21;;;;;;;1.52;1.20;;;22.10;99.90;;;;;;5031209;28;20120;-40
2023/07/15 09:30:47;;;;;;;1.70;1.30;;;22.10;99.90;;;;;;5031014;28;20021;-41
2023/07/15 09:33:42;;;;;;;1.92;1.30;;;22.10;99.90;;;;;;5031116;28;20067;-39
2023/07/15 09:36:12;;;;;;;2.05;1.40;;;22.10;99.90;;;;;;5031390;28;20124;-39
2023/07/15 09:38:38;;;;;;;1.30;1.10;;;22.10;99.90;;;;;;5031021;28;20500;-39
2023/07/15 09:41:08;;;;;;;2.53;1.40;;;22.10;99.90;;;;;;5030900;28;20037;-37
2023/07/15 09:43:48;;;;;;;4.40;2.08;;;22.10;99.90;;;;;;5030910;28;20025;-37
2023/07/15 09:46:18;;;;;;;5.38;2.10;;;22.40;99.90;;;;;;5031123;28;20084;-41
2023/07/15 09:48:45;;;;;;;4.40;1.95;;;22.60;99.90;;;;;;5031083;28;20350;-40
2023/07/15 09:51:13;;;;;;;3.38;2.03;;;22.80;99.90;;;;;;5013108;28;20061;-44
2023/07/15 09:53:43;;;;;;;5.43;2.00;;;22.90;99.90;;;;;;5030910;28;20022;-43
2023/07/15 09:56:10;;;;;;;6.35;1.80;;;;;;;;;;5030741;28;20029;-40
2023/07/15 09:58:39;;;;;;;3.38;2.30;;;23.00;99.80;;;;;;5030876;28;20026;-42
2023/07/15 10:01:14;;;;;;;3.60;1.98;;;23.00;99.90;;;;;;5030732;28;20021;-39
2023/07/15 10:04:06;;;;;;;3.17;2.13;;;23.00;99.90;;;;;;5030819;28;20018;-43
2023/07/15 10:06:33;;;;;;;4.18;1.98;;;22.90;99.90;;;;;;5030618;28;20068;-42
2023/07/15 10:09:00;;;;;;;1.98;1.77;;;22.90;99.90;;;;;;5030649;28;20037;-42
2023/07/15 10:11:26;;;;;;;3.20;2.00;;;22.90;99.90;;;;;;5030827;28;20444;-40
2023/07/15 10:13:52;;;;;;;2.38;1.83;;;22.90;99.90;;;;;;5031021;28;20053;-39
2023/07/15 10:16:19;;;;;;;2.42;1.80;;;22.80;99.90;;;;;;5034671;28;20152;-41
2023/07/15 10:18:46;;;;;;;2.28;1.70;;;22.80;99.90;;;;;;5034318;28;20456;-41
2023/07/15 10:21:15;;;;;;;2.42;1.70;;;22.80;99.90;;;;;;5034473;28;20104;-40
2023/07/15 10:23:40;;;;;;;2.25;1.83;;;22.80;99.90;;;;;;5034487;28;20392;-41
2023/07/15 10:26:07;;;;;;;3.92;2.00;;;22.70;99.90;;;;;;5035538;28;20021;-41
2023/07/15 10:28:35;;;;;;;2.58;1.85;;;22.70;99.90;;;;;;5034336;28;20452;-41
2023/07/15 10:31:05;;;;;;;2.85;1.80;;;22.70;99.90;;;;;;5034197;28;20049;-43
2023/07/15 10:33:31;;;;;;;2.15;1.60;;;22.70;99.90;;;;;;5034148;28;20049;-41
2023/07/15 10:35:56;;;;;;;4.05;1.83;;;22.70;99.90;;;;;;5034465;28;20052;-43
2023/07/15 10:38:31;;;;;;;2.53;1.85;;;22.60;99.90;;;;;;5034175;28;20030;-41
2023/07/15 10:41:05;;;;;;;2.22;1.80;;;22.70;99.90;;;;;;5034072;28;20021;-40
2023/07/15 10:43:33;;;;;;;3.97;1.80;;;22.60;99.90;;;;;;5034071;28;20523;-39
2023/07/15 10:46:02;;;;;;;2.20;1.35;;;22.60;99.90;;;;;;5033929;28;20033;-44
2023/07/15 10:48:28;;;;;;;1.80;1.58;;;22.60;99.90;;;;;;5033884;28;20025;-42
2023/07/15 10:50:55;;;;;;;4.63;1.60;;;22.60;99.90;;;;;;5033782;28;20075;-38
2023/07/15 10:53:26;;;;;;;1.90;1.70;;;22.60;99.90;;;;;;5034234;28;20048;-42
2023/07/15 10:55:54;;;;;;;4.00;1.73;;;22.60;99.90;;;;;;5033828;28;20029;-42
2023/07/15 10:58:21;;;;;;;4.03;1.63;;;22.60;99.90;;;;;;5033841;28;20467;-41
2023/07/15 11:00:46;;;;;;;2.03;1.55;;;22.60;99.90;;;;;;5034143;28;20064;-42
2023/07/15 11:03:12;;;;;;;2.75;1.83;;;22.60;99.90;;;;;;5033611;28;20476;-40
2023/07/15 11:05:38;;;;;;;2.67;1.60;;;22.60;99.90;;;;;;5033652;28;20033;-41
2023/07/15 11:08:08;;;;;;;2.45;1.58;;;22.60;99.90;;;;;;5033944;28;20022;-44
2023/07/15 11:10:34;;;;;;;2.53;1.42;;;22.60;99.90;;;;;;5033340;28;20029;-43
2023/07/15 11:13:17;;;;;;;2.10;1.60;;;22.60;99.90;;;;;;5033477;28;20028;-41
2023/07/15 11:15:46;;;;;;;2.17;1.42;;;22.60;99.90;;;;;;5033532;28;20030;-39
2023/07/15 11:18:19;;;;;;;1.88;1.30;;;22.60;99.90;;;;;;5033231;28;20025;-42
2023/07/15 11:20:46;;;;;;;2.20;1.70;;;22.60;99.90;;;;;;5033288;28;20118;-38
2023/07/15 11:23:12;;;;;;;2.03;1.40;;;22.60;99.90;;;;;;5033369;28;20105;-42
2023/07/15 11:25:38;;;;;;;1.83;1.30;;;22.60;99.90;;;;;;5032572;28;20053;-41
2023/07/15 11:28:05;;;;;;;2.13;1.60;;;22.60;99.90;;;;;;5033079;28;20105;-43
2023/07/15 11:30:45;;;;;;;3.47;1.60;;;22.60;99.90;;;;;;5033190;28;20022;-41
2023/07/15 11:33:11;;;;;;;2.35;1.73;;;22.60;99.90;;;;;;5033312;28;20024;-40
2023/07/15 11:35:38;;;;;;;1.60;1.35;;;22.60;99.90;;;;;;5033144;28;20040;-41
2023/07/15 11:38:07;;;;;;;2.13;1.50;;;22.60;99.90;;;;;;5032941;28;20029;-42
2023/07/15 11:40:35;;;;;;;2.05;1.50;;;22.60;99.90;;;;;;5032856;28;20105;-41
2023/07/15 11:43:04;;;;;;;3.80;1.60;;;22.60;99.90;;;;;;5032986;28;20030;-40
2023/07/15 11:45:29;;;;;;;2.08;1.40;;;22.60;99.90;;;;;;5032893;28;20036;-43
2023/07/15 11:47:55;;;;;;;1.55;1.35;;;22.60;99.90;;;;;;5032915;28;20137;-41
2023/07/15 11:50:26;;;;;;;1.90;1.40;;;22.60;99.90;;;;;;5032717;28;20101;-41
2023/07/15 11:52:51;;;;;;;1.80;1.50;;;22.60;99.90;;;;;;5032755;28;20462;-41
2023/07/15 11:55:24;;;;;;;2.33;1.40;;;22.60;99.90;;;;;;5032751;28;20094;-42
2023/07/15 11:57:50;;;;;;;2.42;1.50;;;22.60;99.90;;;;;;5032739;28;20072;-41
2023/07/15 12:00:29;;;;;;;1.70;1.30;;;22.60;99.90;;;;;;5032402;28;20028;-44
2023/07/15 12:02:56;;;;;;;2.58;1.40;;;22.60;99.90;;;;;;5032697;28;20025;-42
2023/07/15 12:05:22;;;;;;;1.98;1.50;;;22.60;99.90;;;;;;5032389;28;20025;-41
2023/07/15 12:07:52;;;;;;;1.33;1.23;;;22.60;99.90;;;;;;5032419;28;20025;-40
2023/07/15 12:10:19;;;;;;;1.75;1.35;;;22.60;99.90;;;;;;5014739;28;20071;-40
2023/07/15 12:12:46;;;;;;;1.88;1.50;;;22.60;99.90;;;;;;5032448;28;20475;-41
2023/07/15 12:15:15;;;;;;;1.75;1.30;;;22.60;99.90;;;;;;5032384;28;20048;-38
2023/07/15 12:17:42;;;;;;;2.22;1.40;;;22.60;99.90;;;;;;5032072;28;20025;-40
2023/07/15 12:20:09;;;;;;;1.92;1.33;;;22.60;99.90;;;;;;5032070;28;20032;-41
2023/07/15 12:22:35;;;;;;;2.22;1.33;;;22.60;99.90;;;;;;5032641;28;20029;-39
2023/07/15 12:25:00;;;;;;;2.08;1.30;;;22.60;99.90;;;;;;5032341;28;20033;-42
2023/07/15 12:27:26;;;;;;;1.40;1.30;;;22.60;99.90;;;;;;5032156;28;20021;-41
2023/07/15 12:29:52;;;;;;;3.60;1.38;;;22.60;99.90;;;;;;5031855;28;20497;-41
2023/07/15 12:32:17;;;;;;;1.42;1.33;;;22.70;99.90;;;;;;5031955;28;20022;-42
2023/07/15 12:34:43;;;;;;;2.47;1.70;;;22.70;99.90;;;;;;5032005;28;20029;-40
2023/07/15 12:37:08;;;;;;;2.15;1.30;;;22.60;99.90;;;;;;5031878;28;20021;-41
2023/07/15 12:39:34;;;;;;;1.52;1.33;;;22.60;99.90;;;;;;5031775;28;20025;-41
2023/07/15 12:42:00;;;;;;;2.13;1.38;;;22.60;99.90;;;;;;5031963;28;20032;-44
2023/07/15 12:44:25;;;;;;;2.03;1.40;;;22.60;99.90;;;;;;5031829;28;20105;-42
2023/07/15 12:46:51;;;;;;;1.92;1.30;;;22.70;99.90;;;;;;5031641;28;20028;-41